createdAt,value
2022-07-26T00:02:23.307Z,21.83
2022-07-26T00:07:24.932Z,21.69
2022-07-26T00:12:26.699Z,21.68
2022-07-26T00:17:28.327Z,21.66
2022-07-26T00:22:29.899Z,21.51
2022-07-26T00:27:31.681Z,21.38
2022-07-26T00:32:33.429Z,21.37
2022-07-26T00:37:35.115Z,21.29
2022-07-26T00:42:37.098Z,21.04
2022-07-26T00:47:38.823Z,21.07
2022-07-26T00:52:44.642Z,21.01
2022-07-26T00:57:46.595Z,20.90
2022-07-26T01:02:48.514Z,20.77
2022-07-26T01:07:50.276Z,20.70
2022-07-26T01:12:51.860Z,20.62
2022-07-26T01:17:53.479Z,20.54
2022-07-26T01:22:55.062Z,20.54
2022-07-26T01:27:56.704Z,20.48
2022-07-26T01:32:58.247Z,20.43
2022-07-26T01:38:00.115Z,20.25
2022-07-26T01:43:01.689Z,20.15
2022-07-26T01:48:03.279Z,20.05
2022-07-26T01:53:06.356Z,20.20
2022-07-26T01:58:08.559Z,20.16
2022-07-26T02:03:10.598Z,20.04
2022-07-26T02:08:12.356Z,20.02
2022-07-26T02:13:14.284Z,20.02
2022-07-26T02:18:15.928Z,19.98
2022-07-26T02:23:17.517Z,19.85
2022-07-26T02:28:19.306Z,19.81
2022-07-26T02:33:21.048Z,19.81
2022-07-26T02:38:22.647Z,19.90
2022-07-26T02:43:26.741Z,19.90
2022-07-26T02:48:30.499Z,19.99
2022-07-26T02:53:32.098Z,19.99
2022-07-26T02:58:33.697Z,20.02
2022-07-26T03:03:36.728Z,19.87
2022-07-26T03:08:39.926Z,19.76
2022-07-26T03:13:41.508Z,19.82
2022-07-26T03:18:43.047Z,19.88
2022-07-26T03:23:44.645Z,19.91
2022-07-26T03:28:46.313Z,19.86
2022-07-26T03:33:47.863Z,19.83
2022-07-26T03:38:49.418Z,19.94
2022-07-26T03:43:50.998Z,19.91
2022-07-26T03:48:52.624Z,19.96
2022-07-26T03:53:54.224Z,19.93
2022-07-26T03:58:56.134Z,20.03
2022-07-26T04:03:57.830Z,20.10
2022-07-26T04:08:59.542Z,20.05
2022-07-26T04:14:01.706Z,20.04
2022-07-26T04:19:03.368Z,20.14
2022-07-26T04:24:05.433Z,20.22
2022-07-26T04:29:07.127Z,20.20
2022-07-26T04:34:10.865Z,20.35
2022-07-26T04:39:12.706Z,20.40
2022-07-26T04:44:14.224Z,20.37
2022-07-26T04:49:15.811Z,20.35
2022-07-26T04:54:17.388Z,20.43
2022-07-26T04:59:21.859Z,20.39
2022-07-26T05:04:23.690Z,20.38
2022-07-26T05:09:25.235Z,20.43
2022-07-26T05:14:26.859Z,20.39
2022-07-26T05:19:29.920Z,20.41
2022-07-26T05:24:31.460Z,20.38
2022-07-26T05:29:33.040Z,20.33
2022-07-26T05:34:34.577Z,20.32
2022-07-26T05:39:36.145Z,20.39
2022-07-26T05:44:42.768Z,20.54
2022-07-26T05:49:44.538Z,20.63
2022-07-26T05:54:46.102Z,20.53
2022-07-26T05:59:47.637Z,20.69
2022-07-26T06:04:49.399Z,20.98
2022-07-26T06:09:51.005Z,20.89
2022-07-26T06:14:52.601Z,20.85
2022-07-26T06:19:54.229Z,20.64
2022-07-26T06:24:55.834Z,20.68
2022-07-26T06:29:57.388Z,20.46
2022-07-26T06:34:58.936Z,20.27
2022-07-26T06:40:00.504Z,20.33
2022-07-26T06:45:02.693Z,20.68
2022-07-26T06:50:05.131Z,20.54
2022-07-26T06:55:07.310Z,20.61
2022-07-26T07:00:09.692Z,20.80
2022-07-26T07:05:11.457Z,21.02
2022-07-26T07:10:13.292Z,20.82
2022-07-26T07:15:14.813Z,21.14
2022-07-26T07:20:16.477Z,21.08
2022-07-26T07:25:18.133Z,21.26
2022-07-26T07:30:24.814Z,21.48
2022-07-26T07:35:31.937Z,22.00
2022-07-26T07:40:33.981Z,21.96
2022-07-26T07:45:35.554Z,21.84
2022-07-26T07:50:37.181Z,22.03
2022-07-26T07:55:41.468Z,22.89
2022-07-26T08:00:48.145Z,23.20
2022-07-26T08:05:50.737Z,23.25
2022-07-26T08:10:53.233Z,23.79
2022-07-26T08:15:55.844Z,23.76
2022-07-26T08:20:57.833Z,23.79
2022-07-26T08:26:04.720Z,23.68
2022-07-26T08:31:08.067Z,23.66
2022-07-26T08:36:09.705Z,23.41
2022-07-26T08:41:11.405Z,23.50
2022-07-26T08:46:13.004Z,23.56
2022-07-26T08:51:17.658Z,23.28
2022-07-26T08:56:19.180Z,23.68
2022-07-26T09:01:20.868Z,23.94
2022-07-26T09:06:26.009Z,23.63
2022-07-26T09:11:32.207Z,23.86
2022-07-26T09:16:38.785Z,23.99
2022-07-26T09:21:41.477Z,25.74
2022-07-26T09:26:55.962Z,25.63
2022-07-26T09:32:12.521Z,25.64
2022-07-26T09:37:17.849Z,25.66
2022-07-26T09:42:28.595Z,24.34
2022-07-26T09:47:38.592Z,25.73
2022-07-26T09:52:40.355Z,25.14
2022-07-26T09:57:42.007Z,26.78
2022-07-26T10:02:43.738Z,27.26
2022-07-26T10:07:45.525Z,26.74
2022-07-26T10:12:50.451Z,26.87
2022-07-26T10:17:51.979Z,26.18
2022-07-26T10:22:55.778Z,27.35
2022-07-26T10:27:58.153Z,28.42
2022-07-26T10:33:01.722Z,27.36
2022-07-26T10:38:05.798Z,26.52
2022-07-26T10:43:39.639Z,26.14
2022-07-26T10:48:55.690Z,26.76
2022-07-26T10:54:13.197Z,26.86
2022-07-26T10:59:27.943Z,26.51
2022-07-26T11:04:36.985Z,26.69
2022-07-26T11:09:39.208Z,27.58
2022-07-26T11:14:44.960Z,27.02
2022-07-26T11:19:49.910Z,28.30
2022-07-26T11:24:51.727Z,28.96
2022-07-26T11:29:53.337Z,29.77
2022-07-26T11:35:04.016Z,30.49
2022-07-26T11:40:06.129Z,30.05
2022-07-26T11:45:10.473Z,28.01
2022-07-26T11:50:21.644Z,28.07
2022-07-26T11:55:31.288Z,27.02
2022-07-26T12:00:33.049Z,25.83
2022-07-26T12:05:34.995Z,24.82
2022-07-26T12:10:36.743Z,22.41
2022-07-26T12:16:04.791Z,20.16
2022-07-26T12:21:09.079Z,20.11
2022-07-26T12:26:28.371Z,20.24
2022-07-26T12:31:32.121Z,20.12
2022-07-26T12:36:34.383Z,20.20
2022-07-26T12:41:40.196Z,20.39
2022-07-26T12:46:42.034Z,21.21
2022-07-26T12:51:43.637Z,23.10
2022-07-26T12:56:46.364Z,24.48
2022-07-26T13:01:51.031Z,25.20
2022-07-26T13:06:52.721Z,26.22
2022-07-26T13:11:54.589Z,25.02
2022-07-26T13:16:56.293Z,25.93
2022-07-26T13:21:59.470Z,26.58
2022-07-26T13:27:02.437Z,27.15
2022-07-26T13:32:04.687Z,28.37
2022-07-26T13:37:08.116Z,28.46
2022-07-26T13:42:10.162Z,29.07
2022-07-26T13:47:11.722Z,29.81
2022-07-26T13:52:16.670Z,30.15
2022-07-26T13:57:18.525Z,29.79
2022-07-26T14:02:20.285Z,29.64
2022-07-26T14:07:21.990Z,30.10
2022-07-26T14:12:23.605Z,30.15
2022-07-26T14:17:25.173Z,30.07
2022-07-26T14:22:26.881Z,29.73
2022-07-26T14:27:28.400Z,29.32
2022-07-26T14:32:30.015Z,30.28
2022-07-26T14:37:44.323Z,30.91
2022-07-26T14:42:48.504Z,30.22
2022-07-26T14:47:50.062Z,28.34
2022-07-26T14:52:53.230Z,26.78
2022-07-26T14:57:54.785Z,26.25
2022-07-26T15:02:56.427Z,25.87
2022-07-26T15:08:00.566Z,25.39
2022-07-26T15:13:07.091Z,25.19
2022-07-26T15:18:08.766Z,24.89
2022-07-26T15:23:11.691Z,24.76
2022-07-26T15:28:13.484Z,24.46
2022-07-26T15:33:15.058Z,24.58
2022-07-26T15:38:16.672Z,24.86
2022-07-26T15:43:43.788Z,24.68
2022-07-26T15:48:45.278Z,25.40
2022-07-26T15:53:46.918Z,27.20
2022-07-26T15:58:48.470Z,28.06
2022-07-26T16:03:50.142Z,27.77
2022-07-26T16:09:15.117Z,27.54
2022-07-26T16:14:13.439Z,26.92
2022-07-26T16:19:15.531Z,25.92
2022-07-26T16:24:17.388Z,26.26
2022-07-26T16:29:19.338Z,25.78
2022-07-26T16:34:21.125Z,24.95
2022-07-26T16:39:22.850Z,24.62
2022-07-26T16:44:24.451Z,24.68
2022-07-26T16:49:26.107Z,24.50
2022-07-26T16:54:27.766Z,24.20
2022-07-26T16:59:29.400Z,24.16
2022-07-26T17:04:31.038Z,24.21
2022-07-26T17:09:32.666Z,24.21
2022-07-26T17:14:34.236Z,24.20
2022-07-26T17:19:35.815Z,23.97
2022-07-26T17:24:37.351Z,24.00
2022-07-26T17:29:38.963Z,23.82
2022-07-26T17:34:40.611Z,23.91
2022-07-26T17:39:52.550Z,24.07
2022-07-26T17:44:55.577Z,24.02
2022-07-26T17:50:14.048Z,23.74
2022-07-26T17:55:21.478Z,23.62
2022-07-26T18:00:23.706Z,23.47
2022-07-26T18:05:34.223Z,23.34
2022-07-26T18:10:38.840Z,23.20
2022-07-26T18:15:40.444Z,23.21
2022-07-26T18:20:42.081Z,23.26
2022-07-26T18:25:43.730Z,23.11
2022-07-26T18:30:45.392Z,23.31
2022-07-26T18:35:46.934Z,23.09
2022-07-26T18:40:48.654Z,22.94
2022-07-26T18:45:50.245Z,22.90
2022-07-26T18:50:51.932Z,22.64
2022-07-26T18:55:54.826Z,22.34
2022-07-26T19:00:56.417Z,22.26
2022-07-26T19:05:57.992Z,22.24
2022-07-26T19:10:59.550Z,22.20
2022-07-26T19:16:01.227Z,22.28
2022-07-26T19:21:03.022Z,22.12
2022-07-26T19:26:04.677Z,21.89
2022-07-26T19:31:06.388Z,21.65
2022-07-26T19:36:08.146Z,21.46
2022-07-26T19:41:13.984Z,21.32
2022-07-26T19:46:17.560Z,21.20
2022-07-26T19:51:19.248Z,21.12
2022-07-26T19:56:20.855Z,21.12
2022-07-26T20:01:23.190Z,21.03
2022-07-26T20:06:27.377Z,21.05
2022-07-26T20:11:28.977Z,21.10
2022-07-26T20:16:30.705Z,21.21
2022-07-26T20:21:32.360Z,21.28
2022-07-26T20:26:34.189Z,21.37
2022-07-26T20:31:35.731Z,21.41
2022-07-26T20:36:37.531Z,21.43
2022-07-26T20:41:39.143Z,21.36
2022-07-26T20:46:40.707Z,21.34
2022-07-26T20:51:42.260Z,21.13
2022-07-26T20:56:43.884Z,21.10
2022-07-26T21:01:45.538Z,21.12
2022-07-26T21:06:47.470Z,21.18
2022-07-26T21:11:50.307Z,21.04
2022-07-26T21:16:51.949Z,20.92
2022-07-26T21:21:53.629Z,20.83
2022-07-26T21:26:55.189Z,20.71
2022-07-26T21:31:56.820Z,20.70
2022-07-26T21:36:58.390Z,20.72
2022-07-26T21:42:00.093Z,20.76
2022-07-26T21:47:01.695Z,20.66
2022-07-26T21:52:03.884Z,20.68
2022-07-26T21:57:05.496Z,20.63
2022-07-26T22:02:07.424Z,20.70
2022-07-26T22:07:09.275Z,20.67
2022-07-26T22:12:11.429Z,20.64
2022-07-26T22:17:13.040Z,20.58
2022-07-26T22:22:14.628Z,20.50
2022-07-26T22:27:16.270Z,20.39
2022-07-26T22:32:17.876Z,20.42
2022-07-26T22:37:19.581Z,20.44
2022-07-26T22:42:21.192Z,20.46
2022-07-26T22:47:22.847Z,20.46
2022-07-26T22:52:24.472Z,20.42
2022-07-26T22:57:26.069Z,20.33
2022-07-26T23:02:27.685Z,20.24
2022-07-26T23:07:29.593Z,20.16
2022-07-26T23:12:31.296Z,20.07
2022-07-26T23:17:33.093Z,20.04
2022-07-26T23:22:34.979Z,20.02
2022-07-26T23:27:36.595Z,19.94
2022-07-26T23:32:38.168Z,19.93
2022-07-26T23:37:39.858Z,19.88
2022-07-26T23:42:41.535Z,19.77
2022-07-26T23:47:43.483Z,19.74
2022-07-26T23:52:45.327Z,19.59
2022-07-26T23:57:46.970Z,19.68
